Alief, Texas
Current Conditions -  °F | °C
As of 9:53 PM on Friday 31 Oct 2014 (Local Time) from KSGR Reporting Station
Clear Clear  
Wind Chill: 15°   Ceiling: Unl
Heat Index: 15°   Visibility: 10mi
Dew Point:   Wind: 9mph
Humidity: 60%   Direction: 350°N
Pressure: 30.25"   Gusts: NA
Location:  29.71°N, 95.6°W
Report Text: KSGR 010253Z AUTO 35008KT 10SM CLR 15/07 A3025 RMK AO2 SLP245 T01500072 51025
Loading
Personal Weather Stations






























Interactive Weather Map
Tropical Storm Tracking
New forecast layout! Learn more

10-Day Weather Forecast

Advertisements
Track Severe Weather on mobile